Time;durP1;ratioP1;P1;durP2;ratioP2;P2;SDS_P1;SDS_P2;PMS_P1;PMS_P2;Temp;Humidity;BMP_temperature;BMP_pressure;BME280_temperature;BME280_humidity;BME280_pressure;Samples;Min_cycle;Max_cycle;Signal;HPM_P1;HPM_P2
2021/07/14 00:02:21;;;;;;;13.40;12.00;;;19.30;99.90;;;;;;5034347;28;20280;-71
2021/07/14 00:04:48;;;;;;;13.67;12.37;;;19.30;99.90;;;;;;5035736;28;20188;-71
2021/07/14 00:07:13;;;;;;;13.57;12.37;;;19.20;99.90;;;;;;5034017;28;20157;-71
2021/07/14 00:09:39;;;;;;;12.50;11.30;;;19.30;99.90;;;;;;5033839;28;20395;-71
2021/07/14 00:12:08;;;;;;;10.40;9.43;;;19.30;99.90;;;;;;5034008;28;20219;-71
2021/07/14 00:22:42;;;;;;;11.20;10.20;;;19.20;99.90;;;;;;5062783;28;20840;-72
2021/07/14 00:25:11;;;;;;;14.73;11.97;;;19.10;99.90;;;;;;5049711;28;20418;-72
2021/07/14 00:27:41;;;;;;;16.83;13.33;;;19.10;99.90;;;;;;5049745;28;20157;-72
2021/07/14 00:30:12;;;;;;;21.03;13.80;;;19.10;99.90;;;;;;5049772;28;20444;-72
2021/07/14 00:32:37;;;;;;;14.00;12.60;;;19.10;99.90;;;;;;5050876;28;20448;-72
2021/07/14 00:35:06;;;;;;;14.43;13.00;;;19.10;99.90;;;;;;5050058;28;20394;-72
2021/07/14 00:37:32;;;;;;;14.60;12.33;;;19.00;99.90;;;;;;5049379;28;20646;-72
2021/07/14 00:39:57;;;;;;;13.27;11.70;;;19.00;99.90;;;;;;5049485;28;20394;-72
2021/07/14 00:42:25;;;;;;;12.13;10.50;;;18.90;99.90;;;;;;5049513;28;20164;-72
2021/07/14 00:44:51;;;;;;;10.67;9.77;;;18.80;99.90;;;;;;5047821;28;20646;-71
2021/07/14 00:47:26;;;;;;;9.93;8.90;;;18.70;99.90;;;;;;5051159;28;20423;-72
2021/07/14 00:49:51;;;;;;;10.93;9.80;;;18.70;99.90;;;;;;5049300;28;20902;-72
2021/07/14 00:52:17;;;;;;;9.17;8.37;;;18.60;99.90;;;;;;5049243;28;20395;-72
2021/07/14 00:54:43;;;;;;;11.10;8.70;;;18.70;99.90;;;;;;5049253;28;20266;-71
2021/07/14 00:57:09;;;;;;;9.43;8.53;;;18.70;99.90;;;;;;5049160;28;20214;-71
2021/07/14 00:59:34;;;;;;;9.70;8.40;;;18.60;99.90;;;;;;5048974;28;20456;-71
2021/07/14 01:02:01;;;;;;;11.27;9.30;;;18.60;99.90;;;;;;5041168;28;20166;-71
2021/07/14 01:04:31;;;;;;;10.80;8.73;;;18.60;99.90;;;;;;5029113;28;20255;-71
2021/07/14 01:07:02;;;;;;;15.93;9.40;;;18.60;99.90;;;;;;5029144;28;20396;-72
2021/07/14 01:12:41;;;;;;;8.27;7.47;;;18.50;99.90;;;;;;5069861;28;20550;-71
2021/07/14 01:15:17;;;;;;;11.90;7.93;;;18.50;99.90;;;;;;5067716;28;20390;-71
2021/07/14 01:17:51;;;;;;;8.27;7.27;;;18.50;99.90;;;;;;5069937;28;20378;-71
2021/07/14 01:23:48;;;;;;;8.97;7.77;;;18.40;99.90;;;;;;5069824;28;20946;-71
2021/07/14 01:26:40;;;;;;;9.77;7.57;;;18.40;99.90;;;;;;5069071;28;20777;-71
2021/07/14 01:29:08;;;;;;;7.57;6.87;;;18.40;99.90;;;;;;5049247;28;20419;-71
2021/07/14 01:31:37;;;;;;;9.17;8.27;;;18.40;99.90;;;;;;5050780;28;20395;-71
2021/07/14 01:34:06;;;;;;;11.63;8.17;;;18.40;99.90;;;;;;5069535;28;20398;-71
2021/07/14 01:36:32;;;;;;;9.00;7.37;;;18.40;99.90;;;;;;5069619;28;20532;-71
2021/07/14 01:38:59;;;;;;;7.87;7.17;;;18.40;99.90;;;;;;5069513;28;20429;-71
2021/07/14 01:41:31;;;;;;;9.87;8.50;;;18.40;99.90;;;;;;5069346;28;20801;-72
2021/07/14 01:43:59;;;;;;;12.47;10.00;;;18.40;99.90;;;;;;5066709;28;20485;-71
2021/07/14 01:46:28;;;;;;;11.37;10.30;;;18.40;99.90;;;;;;5049427;28;20398;-71
2021/07/14 01:48:56;;;;;;;11.33;9.30;;;18.40;99.90;;;;;;5049394;28;20419;-72
2021/07/14 01:51:23;;;;;;;11.33;9.83;;;18.40;99.90;;;;;;5049331;28;20453;-72
2021/07/14 01:53:49;;;;;;;13.60;11.97;;;18.50;99.90;;;;;;5049365;28;20391;-72
2021/07/14 01:56:15;;;;;;;15.63;11.10;;;18.40;99.90;;;;;;5049183;28;20427;-71
2021/07/14 01:58:43;;;;;;;15.47;12.23;;;18.50;99.90;;;;;;5049192;28;20454;-71
2021/07/14 02:01:12;;;;;;;14.17;10.40;;;18.50;99.90;;;;;;5049689;28;20182;-72
2021/07/14 02:03:43;;;;;;;16.43;13.23;;;18.50;99.90;;;;;;5049012;28;20411;-71
2021/07/14 02:06:10;;;;;;;15.00;12.13;;;18.50;99.90;;;;;;5049042;28;20864;-71
2021/07/14 02:08:38;;;;;;;20.80;15.10;;;18.50;99.90;;;;;;5048933;28;20869;-71
2021/07/14 02:11:04;;;;;;;20.13;15.30;;;18.50;99.90;;;;;;5048908;28;20409;-72
2021/07/14 02:13:31;;;;;;;20.77;15.33;;;18.50;99.90;;;;;;5048407;28;20438;-72
2021/07/14 02:16:00;;;;;;;19.70;14.37;;;18.50;99.90;;;;;;5048039;28;20399;-72
2021/07/14 02:18:33;;;;;;;21.97;16.00;;;18.50;99.90;;;;;;5049304;28;20407;-72
2021/07/14 02:20:59;;;;;;;20.70;13.90;;;18.50;99.90;;;;;;5053294;28;20771;-72
2021/07/14 02:23:25;;;;;;;15.00;12.20;;;18.40;99.90;;;;;;5052172;28;20437;-70
2021/07/14 02:25:51;;;;;;;16.63;12.73;;;18.40;99.90;;;;;;5048613;28;20156;-69
2021/07/14 02:28:16;;;;;;;11.87;10.67;;;18.40;99.90;;;;;;5048791;28;20641;-72
2021/07/14 02:30:42;;;;;;;17.50;10.60;;;18.40;99.90;;;;;;5048774;28;20409;-72
2021/07/14 02:33:10;;;;;;;12.47;9.90;;;18.40;99.90;;;;;;5044036;28;20217;-72
2021/07/14 02:35:39;;;;;;;13.57;10.23;;;18.40;99.90;;;;;;5042235;28;20222;-73
2021/07/14 02:38:14;;;;;;;15.90;10.37;;;18.40;99.90;;;;;;5055011;28;20399;-73
2021/07/14 02:40:53;;;;;;;13.00;10.10;;;18.40;99.90;;;;;;5054994;28;20402;-73
2021/07/14 02:43:25;;;;;;;14.77;11.47;;;18.40;99.90;;;;;;5054626;28;20833;-73
2021/07/14 02:45:52;;;;;;;14.77;10.80;;;18.40;99.90;;;;;;5054002;28;20402;-73
2021/07/14 02:48:18;;;;;;;14.20;11.17;;;18.40;99.90;;;;;;5054887;28;20435;-73
2021/07/14 02:50:45;;;;;;;14.80;11.30;;;18.40;99.90;;;;;;5054853;28;20409;-73
2021/07/14 02:53:15;;;;;;;13.87;12.37;;;18.40;99.90;;;;;;5051985;28;20419;-73
2021/07/14 02:55:46;;;;;;;15.50;12.40;;;18.40;99.90;;;;;;5055201;28;20430;-71
2021/07/14 02:58:12;;;;;;;14.97;11.50;;;18.50;99.90;;;;;;5054875;28;20411;-71
2021/07/14 03:00:39;;;;;;;18.00;12.03;;;18.40;99.90;;;;;;5054879;28;20471;-72
2021/07/14 03:03:07;;;;;;;14.37;12.10;;;18.50;99.90;;;;;;5054579;28;20533;-71
2021/07/14 03:05:33;;;;;;;15.40;12.20;;;18.50;99.90;;;;;;5054647;28;20434;-71
2021/07/14 03:08:02;;;;;;;15.77;12.37;;;18.50;99.90;;;;;;5054572;28;20395;-71
2021/07/14 03:10:29;;;;;;;14.00;12.00;;;18.50;99.90;;;;;;5053589;28;20530;-70
2021/07/14 03:12:57;;;;;;;17.90;13.40;;;18.50;99.90;;;;;;5054589;28;20445;-69
2021/07/14 03:15:23;;;;;;;18.60;13.17;;;18.50;99.90;;;;;;5053108;28;20938;-69
2021/07/14 03:17:51;;;;;;;17.77;13.10;;;18.50;99.90;;;;;;5054353;28;20399;-69
2021/07/14 03:20:17;;;;;;;20.53;13.30;;;18.50;99.90;;;;;;5054439;28;20767;-70
2021/07/14 03:22:46;;;;;;;18.67;14.03;;;18.60;99.90;;;;;;5040967;28;20851;-69
2021/07/14 03:25:13;;;;;;;17.77;13.93;;;18.60;99.90;;;;;;5034264;28;20760;-69
2021/07/14 03:27:41;;;;;;;19.30;13.63;;;18.60;99.90;;;;;;5049855;28;20892;-69
2021/07/14 03:30:07;;;;;;;17.60;13.40;;;18.60;99.90;;;;;;5054349;28;20425;-70
2021/07/14 03:32:33;;;;;;;23.80;14.17;;;18.60;99.90;;;;;;5054310;28;20953;-69
2021/07/14 03:34:59;;;;;;;18.60;13.00;;;18.60;99.90;;;;;;5053951;28;20485;-69
2021/07/14 03:37:25;;;;;;;22.40;13.40;;;18.60;99.90;;;;;;5054171;28;20183;-70
2021/07/14 03:39:51;;;;;;;12.93;11.40;;;18.60;99.90;;;;;;5054306;28;20524;-69
2021/07/14 03:42:17;;;;;;;15.20;11.67;;;18.60;99.90;;;;;;5053840;28;20544;-69
2021/07/14 03:44:45;;;;;;;14.87;12.20;;;18.60;99.90;;;;;;5051529;28;20496;-69
2021/07/14 03:47:14;;;;;;;20.10;12.10;;;18.70;99.90;;;;;;5053156;28;20494;-70
2021/07/14 03:49:40;;;;;;;13.77;12.03;;;18.70;99.90;;;;;;5053549;28;20773;-70
2021/07/14 03:52:07;;;;;;;14.73;11.20;;;18.60;99.90;;;;;;5046180;28;20473;-70
2021/07/14 03:54:34;;;;;;;24.43;10.97;;;18.70;99.90;;;;;;5033768;28;20472;-70
2021/07/14 03:57:01;;;;;;;19.60;11.57;;;18.70;99.90;;;;;;5033652;28;20403;-69
2021/07/14 03:59:27;;;;;;;16.30;11.80;;;18.60;99.90;;;;;;5033785;28;20956;-70
2021/07/14 04:01:53;;;;;;;15.63;10.87;;;18.60;99.90;;;;;;5050897;28;20457;-69
2021/07/14 04:04:20;;;;;;;17.30;9.70;;;18.60;99.90;;;;;;5053538;28;20160;-70
2021/07/14 04:06:48;;;;;;;13.67;9.13;;;18.60;99.90;;;;;;5053527;28;20402;-70
2021/07/14 04:11:58;;;;;;;12.70;9.60;;;18.60;99.90;;;;;;5131209;27;20512;-70
2021/07/14 04:14:25;;;;;;;14.67;10.50;;;18.60;99.90;;;;;;5130375;28;20391;-70
2021/07/14 04:16:52;;;;;;;15.00;9.37;;;18.60;99.90;;;;;;5128862;28;20409;-70
2021/07/14 04:19:18;;;;;;;13.30;10.57;;;18.60;99.90;;;;;;5110305;27;20438;-70
2021/07/14 04:21:44;;;;;;;14.23;9.97;;;18.60;99.90;;;;;;5121076;28;20434;-70
2021/07/14 04:24:10;;;;;;;15.13;9.97;;;18.60;99.90;;;;;;5139026;27;20185;-70
2021/07/14 04:26:36;;;;;;;15.30;9.77;;;18.60;99.90;;;;;;5132047;27;20383;-70
2021/07/14 04:29:03;;;;;;;11.17;9.63;;;18.60;99.90;;;;;;5132337;27;20187;-71
2021/07/14 04:31:33;;;;;;;15.03;9.93;;;18.60;99.90;;;;;;5130158;27;20205;-71
2021/07/14 04:33:59;;;;;;;16.00;11.17;;;18.60;99.90;;;;;;5128444;27;20398;-71
2021/07/14 04:36:25;;;;;;;17.43;10.20;;;18.60;99.90;;;;;;5109967;28;20423;-71
2021/07/14 04:38:50;;;;;;;11.83;8.80;;;18.60;99.90;;;;;;5122237;28;20466;-71
2021/07/14 04:41:16;;;;;;;15.53;10.77;;;18.60;99.90;;;;;;5130609;27;20157;-71
2021/07/14 04:43:41;;;;;;;20.97;11.50;;;18.70;99.90;;;;;;5130522;28;20644;-71
2021/07/14 04:46:07;;;;;;;26.63;11.90;;;18.70;99.90;;;;;;5128712;28;20158;-71
2021/07/14 04:48:33;;;;;;;19.83;11.60;;;18.70;99.90;;;;;;5129717;28;20301;-71
2021/07/14 04:50:58;;;;;;;18.00;12.57;;;18.70;99.90;;;;;;5126794;27;20198;-71
2021/07/14 04:53:24;;;;;;;18.43;12.77;;;18.70;99.90;;;;;;5124797;28;20635;-71
2021/07/14 04:55:50;;;;;;;23.07;12.87;;;18.70;99.90;;;;;;5120376;28;20719;-71
2021/07/14 04:58:15;;;;;;;19.60;12.47;;;18.70;99.90;;;;;;5114605;28;20174;-71
2021/07/14 05:00:41;;;;;;;20.30;13.00;;;18.70;99.90;;;;;;5120945;28;20176;-71
2021/07/14 05:03:06;;;;;;;26.70;14.40;;;18.70;99.90;;;;;;5114503;27;20169;-71
2021/07/14 05:05:32;;;;;;;23.00;15.77;;;18.70;99.90;;;;;;5107992;28;20625;-71
2021/07/14 05:07:58;;;;;;;25.77;14.77;;;18.70;99.90;;;;;;5126527;28;20162;-71
2021/07/14 05:10:29;;;;;;;30.23;16.33;;;18.70;99.90;;;;;;5109249;28;20202;-71
2021/07/14 05:12:55;;;;;;;33.73;16.70;;;18.70;99.90;;;;;;5109311;28;20151;-71
2021/07/14 05:15:21;;;;;;;29.07;17.90;;;18.60;99.90;;;;;;5107065;28;20396;-71
2021/07/14 05:17:47;;;;;;;34.80;18.73;;;18.60;99.90;;;;;;5108181;28;20410;-71
2021/07/14 05:20:13;;;;;;;37.60;20.10;;;18.60;99.90;;;;;;5108936;28;20476;-71
2021/07/14 05:22:39;;;;;;;27.83;17.53;;;18.60;99.90;;;;;;5118556;28;20304;-71
2021/07/14 05:25:07;;;;;;;28.17;18.23;;;18.60;99.90;;;;;;5115417;28;20412;-71
2021/07/14 05:27:33;;;;;;;33.53;19.20;;;18.60;99.90;;;;;;5115720;27;20449;-71
2021/07/14 05:29:58;;;;;;;33.80;19.70;;;18.60;99.90;;;;;;5115441;27;20443;-71
2021/07/14 05:32:24;;;;;;;30.17;17.63;;;18.60;99.90;;;;;;5107740;28;20631;-71
2021/07/14 05:34:50;;;;;;;33.73;19.07;;;18.60;99.90;;;;;;5097353;28;20224;-71
2021/07/14 05:37:16;;;;;;;38.00;20.27;;;18.60;99.90;;;;;;5108462;28;20178;-71
2021/07/14 05:39:42;;;;;;;35.30;20.77;;;18.70;99.90;;;;;;5116454;28;20164;-71
2021/07/14 05:42:07;;;;;;;35.73;19.77;;;18.70;99.90;;;;;;5114531;28;20526;-71
2021/07/14 05:44:33;;;;;;;30.90;18.20;;;18.60;99.90;;;;;;5114950;28;20180;-71
2021/07/14 05:46:59;;;;;;;37.07;20.40;;;18.60;99.90;;;;;;5105689;28;20730;-71
2021/07/14 05:49:24;;;;;;;38.10;20.07;;;18.60;99.90;;;;;;5105882;28;20170;-71
2021/07/14 05:51:53;;;;;;;40.90;20.20;;;18.60;99.90;;;;;;5104732;28;20201;-71
2021/07/14 05:54:20;;;;;;;29.10;19.17;;;18.60;99.90;;;;;;5101565;28;20184;-71
2021/07/14 05:56:46;;;;;;;36.77;19.17;;;18.60;99.90;;;;;;5108737;28;20442;-71
2021/07/14 05:59:11;;;;;;;41.40;20.33;;;18.70;99.90;;;;;;5101692;28;20455;-71
2021/07/14 06:01:37;;;;;;;26.37;19.10;;;18.70;99.90;;;;;;5099306;28;20715;-71
2021/07/14 06:04:03;;;;;;;35.73;20.13;;;18.70;99.90;;;;;;5097939;27;20179;-71
2021/07/14 06:06:29;;;;;;;44.40;20.60;;;18.70;99.90;;;;;;5098157;28;20184;-71
2021/07/14 06:08:55;;;;;;;37.23;20.77;;;18.80;99.90;;;;;;5105349;28;20431;-71
2021/07/14 06:11:21;;;;;;;31.57;20.20;;;18.80;99.90;;;;;;5103271;28;20206;-71
2021/07/14 06:13:47;;;;;;;38.20;22.80;;;18.80;99.90;;;;;;5107935;28;20435;-71
2021/07/14 06:16:13;;;;;;;44.40;23.03;;;18.80;99.90;;;;;;5105057;28;20417;-71
2021/07/14 06:18:38;;;;;;;43.63;25.33;;;18.90;99.90;;;;;;5103389;28;20182;-71
2021/07/14 06:21:04;;;;;;;37.73;22.77;;;18.90;99.90;;;;;;5107415;28;20255;-71
2021/07/14 06:23:31;;;;;;;45.20;23.87;;;18.90;99.90;;;;;;5105735;28;20324;-71
2021/07/14 06:25:57;;;;;;;35.60;20.80;;;18.90;99.90;;;;;;5097710;28;20940;-71
2021/07/14 06:28:23;;;;;;;39.93;19.57;;;18.90;99.90;;;;;;5099177;28;20438;-72
2021/07/14 06:30:49;;;;;;;35.37;19.10;;;18.90;99.90;;;;;;5096264;28;20330;-71
2021/07/14 06:33:15;;;;;;;36.77;20.50;;;18.90;99.90;;;;;;5098819;28;20550;-71
2021/07/14 06:35:41;;;;;;;45.87;21.50;;;18.80;99.90;;;;;;5100534;28;20431;-71
2021/07/14 06:38:07;;;;;;;35.27;19.87;;;18.80;99.90;;;;;;5100080;28;20423;-71
2021/07/14 06:40:37;;;;;;;38.40;19.40;;;18.80;99.90;;;;;;5098783;28;20437;-71
2021/07/14 06:43:06;;;;;;;46.70;23.63;;;18.80;99.90;;;;;;5100393;27;20415;-71
2021/07/14 06:45:32;;;;;;;43.43;22.57;;;18.80;99.90;;;;;;5099079;27;20428;-71
2021/07/14 06:47:57;;;;;;;40.00;21.60;;;18.70;99.90;;;;;;5102505;28;20451;-71
2021/07/14 06:50:23;;;;;;;45.23;21.87;;;18.80;99.90;;;;;;5107591;28;20286;-71
2021/07/14 06:52:48;;;;;;;50.63;25.13;;;18.80;99.90;;;;;;5098682;28;20175;-71
2021/07/14 06:55:14;;;;;;;49.43;22.70;;;18.80;99.90;;;;;;5114222;28;20166;-71
2021/07/14 06:57:41;;;;;;;50.10;23.77;;;18.80;99.90;;;;;;5103139;28;20692;-71
2021/07/14 07:00:09;;;;;;;45.73;24.07;;;18.80;99.90;;;;;;5093131;27;20254;-71
2021/07/14 07:02:35;;;;;;;42.00;23.33;;;18.80;99.90;;;;;;5103296;28;20424;-71
2021/07/14 07:05:02;;;;;;;37.30;22.83;;;18.80;99.90;;;;;;5095059;28;20775;-71
2021/07/14 07:07:28;;;;;;;39.10;22.80;;;18.80;99.90;;;;;;5112488;27;20787;-71
2021/07/14 07:09:53;;;;;;;44.47;24.80;;;18.80;99.90;;;;;;5103356;28;20468;-71
2021/07/14 07:12:20;;;;;;;41.63;24.73;;;18.80;99.90;;;;;;5099136;28;20196;-71
2021/07/14 07:14:46;;;;;;;45.13;24.47;;;18.80;99.90;;;;;;5093316;27;20175;-71
2021/07/14 07:17:11;;;;;;;44.10;26.70;;;18.80;99.90;;;;;;5095053;28;20440;-71
2021/07/14 07:19:37;;;;;;;42.90;25.67;;;18.80;99.90;;;;;;5097408;28;20952;-71
2021/07/14 07:22:03;;;;;;;50.07;27.20;;;18.80;99.90;;;;;;5097546;28;20177;-71
2021/07/14 07:24:28;;;;;;;52.63;29.00;;;18.80;99.90;;;;;;5093483;28;20237;-71
2021/07/14 07:26:54;;;;;;;58.73;28.70;;;18.80;99.90;;;;;;5098590;28;20477;-71
2021/07/14 07:29:20;;;;;;;56.37;29.77;;;18.80;99.90;;;;;;5100256;28;20737;-71
2021/07/14 07:31:45;;;;;;;52.03;30.90;;;18.90;99.90;;;;;;5101120;28;20198;-71
2021/07/14 07:34:11;;;;;;;53.37;29.17;;;18.90;99.90;;;;;;5095626;28;20180;-71
2021/07/14 07:36:37;;;;;;;55.33;28.70;;;18.90;99.90;;;;;;5102603;27;20216;-71
2021/07/14 07:39:04;;;;;;;43.23;26.73;;;18.90;99.90;;;;;;5096157;28;20640;-71
2021/07/14 07:41:30;;;;;;;47.97;26.30;;;18.90;99.90;;;;;;5101105;28;20177;-71
2021/07/14 07:43:56;;;;;;;48.17;24.77;;;18.90;99.90;;;;;;5102728;28;20442;-71
2021/07/14 07:46:22;;;;;;;42.70;24.70;;;18.90;99.90;;;;;;5094275;28;20827;-71
2021/07/14 07:48:48;;;;;;;33.30;19.57;;;18.80;99.90;;;;;;5095169;28;20178;-71
2021/07/14 07:51:13;;;;;;;20.10;13.27;;;18.80;99.90;;;;;;5097700;28;20452;-71
2021/07/14 07:53:39;;;;;;;18.90;11.23;;;18.70;99.90;;;;;;5100596;28;20181;-72
2021/07/14 07:56:05;;;;;;;21.20;12.93;;;18.60;99.90;;;;;;5091340;28;20241;-72
2021/07/14 07:58:31;;;;;;;22.23;12.00;;;18.60;99.90;;;;;;5102759;28;20194;-72
2021/07/14 08:00:57;;;;;;;17.07;11.00;;;18.60;99.90;;;;;;5104157;28;20542;-71
2021/07/14 08:03:23;;;;;;;25.93;14.50;;;18.60;99.90;;;;;;5100791;28;20709;-72
2021/07/14 08:05:48;;;;;;;22.80;16.10;;;18.60;99.90;;;;;;5099030;28;20173;-72
2021/07/14 08:08:14;;;;;;;26.23;16.80;;;18.60;99.90;;;;;;5097704;28;20169;-72
2021/07/14 08:10:40;;;;;;;30.47;16.57;;;18.60;99.90;;;;;;5099403;28;20212;-72
2021/07/14 08:13:06;;;;;;;24.93;16.50;;;18.60;99.90;;;;;;5100268;28;20448;-71
2021/07/14 08:15:32;;;;;;;26.00;16.90;;;18.70;99.90;;;;;;5098189;28;20766;-72
2021/07/14 08:17:58;;;;;;;26.70;15.97;;;18.70;99.90;;;;;;5093633;28;20444;-72
2021/07/14 08:20:23;;;;;;;26.17;15.97;;;18.70;99.90;;;;;;5104996;28;20442;-72
2021/07/14 08:22:50;;;;;;;27.40;16.60;;;18.70;99.90;;;;;;5102697;28;20684;-71
2021/07/14 08:25:16;;;;;;;25.87;16.70;;;18.70;99.90;;;;;;5111278;28;20188;-71
2021/07/14 08:27:42;;;;;;;23.13;16.13;;;18.70;99.90;;;;;;5105140;28;20434;-71
2021/07/14 08:30:09;;;;;;;28.30;17.73;;;18.70;99.90;;;;;;5097852;28;20461;-72
2021/07/14 08:32:35;;;;;;;23.83;16.40;;;18.70;99.90;;;;;;5096382;28;20516;-72
2021/07/14 08:35:01;;;;;;;22.90;14.90;;;18.80;99.90;;;;;;5097252;28;20599;-72
2021/07/14 08:37:27;;;;;;;24.30;15.33;;;18.70;99.90;;;;;;5099068;28;20528;-72
2021/07/14 08:39:56;;;;;;;21.63;15.80;;;18.70;99.90;;;;;;5102409;28;20312;-73
2021/07/14 08:42:22;;;;;;;20.13;14.27;;;18.70;99.90;;;;;;5087841;28;20408;-71
2021/07/14 08:44:49;;;;;;;11.07;7.80;;;18.70;99.90;;;;;;5105596;28;20428;-71
2021/07/14 08:47:16;;;;;;;8.63;6.20;;;18.60;99.90;;;;;;5089964;28;20440;-71
2021/07/14 08:49:44;;;;;;;7.40;6.43;;;18.40;99.90;;;;;;5094024;28;20439;-71
2021/07/14 08:52:12;;;;;;;9.07;6.67;;;18.40;99.90;;;;;;5097048;28;20431;-71
2021/07/14 08:54:41;;;;;;;9.03;6.30;;;18.40;99.90;;;;;;5095379;28;20447;-72
2021/07/14 08:57:08;;;;;;;9.63;6.57;;;18.40;99.90;;;;;;5102055;27;20415;-71
2021/07/14 08:59:34;;;;;;;12.03;6.50;;;18.40;99.90;;;;;;5113045;27;20990;-71
2021/07/14 09:01:59;;;;;;;7.37;5.60;;;18.40;99.90;;;;;;5111495;28;20407;-71
2021/07/14 09:04:25;;;;;;;12.50;6.60;;;18.40;99.90;;;;;;5105455;28;20227;-71
2021/07/14 09:06:51;;;;;;;8.17;6.40;;;18.40;99.90;;;;;;5102364;28;20204;-72
2021/07/14 09:09:16;;;;;;;10.53;6.57;;;18.40;99.90;;;;;;5098824;28;20173;-72
2021/07/14 09:12:02;;;;;;;15.33;7.90;;;18.50;99.90;;;;;;5100942;28;20278;-72
2021/07/14 09:14:33;;;;;;;22.30;13.83;;;18.50;99.90;;;;;;5101289;28;20867;-71
2021/07/14 09:17:00;;;;;;;26.70;14.30;;;18.50;99.90;;;;;;5092774;28;20492;-72
2021/07/14 09:19:29;;;;;;;34.00;17.87;;;18.60;99.90;;;;;;5106075;27;20439;-72
2021/07/14 09:21:56;;;;;;;38.93;21.13;;;18.70;99.90;;;;;;5108252;27;20432;-72
2021/07/14 09:27:16;;;;;;;34.60;18.83;;;18.70;99.90;;;;;;5031057;27;20595;-75
2021/07/14 09:32:50;;;;;;;26.47;16.30;;;18.90;99.90;;;;;;5056390;28;20544;-72
2021/07/14 09:38:12;;;;;;;36.70;17.27;;;18.90;99.90;;;;;;5046333;28;20960;-74
2021/07/14 09:40:39;;;;;;;35.60;17.17;;;19.00;99.90;;;;;;5039928;28;20935;-75
2021/07/14 09:43:10;;;;;;;32.60;17.03;;;19.00;99.90;;;;;;5041726;28;20433;-75
2021/07/14 09:48:19;;;;;;;37.23;19.07;;;19.00;99.90;;;;;;5039196;28;21139;-73
2021/07/14 09:53:26;;;;;;;41.80;18.40;;;19.00;99.90;;;;;;5065408;28;20534;-73
2021/07/14 09:55:55;;;;;;;40.47;18.53;;;19.00;99.90;;;;;;5065384;28;20417;-73
2021/07/14 10:01:02;;;;;;;32.00;17.30;;;19.00;99.90;;;;;;5048303;28;20655;-72
2021/07/14 10:11:23;;;;;;;46.30;21.07;;;19.20;99.90;;;;;;5065187;28;20642;-74
2021/07/14 10:16:40;;;;;;;51.50;21.70;;;19.10;99.90;;;;;;5064770;28;20529;-72
2021/07/14 10:19:16;;;;;;;49.70;21.10;;;19.20;99.90;;;;;;5061303;28;20406;-72
2021/07/14 10:21:46;;;;;;;41.57;22.60;;;19.20;99.90;;;;;;5078700;28;20494;-72
2021/07/14 10:24:14;;;;;;;52.13;22.47;;;19.20;99.90;;;;;;5061616;28;20758;-72
2021/07/14 10:26:42;;;;;;;52.10;23.37;;;19.20;99.90;;;;;;5067729;28;20409;-72
2021/07/14 10:29:08;;;;;;;56.33;26.17;;;19.20;99.90;;;;;;5066211;28;20428;-72
2021/07/14 10:31:35;;;;;;;60.53;26.13;;;19.20;99.90;;;;;;5061012;28;20415;-72
2021/07/14 10:34:03;;;;;;;71.40;27.00;;;19.20;99.90;;;;;;5060770;28;20452;-72
2021/07/14 10:36:32;;;;;;;71.73;27.87;;;19.10;99.90;;;;;;5059591;28;20481;-72
2021/07/14 10:39:06;;;;;;;65.50;30.30;;;19.10;99.90;;;;;;5070784;28;20755;-72
2021/07/14 10:41:32;;;;;;;91.57;31.23;;;19.10;99.90;;;;;;5073024;28;20508;-72
2021/07/14 10:43:59;;;;;;;69.93;28.57;;;19.20;99.90;;;;;;5064122;28;20793;-72
2021/07/14 10:46:26;;;;;;;69.30;29.93;;;19.20;99.90;;;;;;5055434;28;20950;-72
2021/07/14 10:48:53;;;;;;;79.37;29.37;;;19.20;99.90;;;;;;5064818;28;20429;-72
2021/07/14 10:51:21;;;;;;;64.90;27.77;;;19.10;99.90;;;;;;5056590;28;20461;-73
2021/07/14 10:53:50;;;;;;;37.10;15.80;;;19.10;99.90;;;;;;5062804;28;20815;-72
2021/07/14 10:56:17;;;;;;;19.13;11.17;;;19.00;99.90;;;;;;5069028;28;20962;-72
2021/07/14 10:58:47;;;;;;;27.00;13.30;;;19.00;99.90;;;;;;5064945;28;20468;-72
2021/07/14 11:01:13;;;;;;;38.47;18.13;;;19.00;99.90;;;;;;5050790;28;20435;-72
2021/07/14 11:03:43;;;;;;;48.80;22.13;;;19.00;99.90;;;;;;5075169;28;20650;-72
2021/07/14 11:06:10;;;;;;;40.43;17.20;;;18.90;99.90;;;;;;5065250;28;20195;-72
2021/07/14 11:08:47;;;;;;;44.93;20.00;;;19.00;99.90;;;;;;5063408;28;20834;-72
2021/07/14 11:11:17;;;;;;;75.07;26.47;;;19.00;99.90;;;;;;5067916;28;20432;-72
2021/07/14 11:13:44;;;;;;;74.80;27.90;;;19.00;99.90;;;;;;5063706;28;20426;-72
2021/07/14 11:19:19;;;;;;;96.80;35.97;;;19.00;99.90;;;;;;5122964;27;20649;-72
2021/07/14 11:38:02;;;;;;;105.03;42.40;;;19.00;99.90;;;;;;5069636;28;20546;-73
2021/07/14 11:40:46;;;;;;;107.33;42.50;;;19.00;99.90;;;;;;5064848;28;20418;-73
2021/07/14 11:45:52;;;;;;;116.40;41.57;;;19.00;99.90;;;;;;5054782;28;21156;-73
2021/07/14 11:48:28;;;;;;;108.80;40.17;;;18.90;99.90;;;;;;5040609;28;20997;-73
2021/07/14 11:53:53;;;;;;;147.00;46.27;;;19.00;99.90;;;;;;5061845;28;20967;-72
2021/07/14 11:59:03;;;;;;;157.80;49.30;;;19.00;99.90;;;;;;5051171;28;20526;-75
2021/07/14 12:04:10;;;;;;;133.00;46.77;;;19.10;99.90;;;;;;5066198;28;21056;-72
2021/07/14 12:06:59;;;;;;;146.77;44.77;;;19.00;99.90;;;;;;5044619;28;20470;-72
2021/07/14 12:09:30;;;;;;;121.70;44.03;;;19.00;99.90;;;;;;5043713;28;20188;-72
2021/07/14 12:11:59;;;;;;;105.13;39.53;;;19.00;99.90;;;;;;5044876;28;20576;-72
2021/07/14 12:17:25;;;;;;;119.90;40.67;;;19.00;99.90;;;;;;5022108;28;20672;-77
2021/07/14 12:22:35;;;;;;;114.70;40.33;;;18.90;99.90;;;;;;5025466;28;20662;-71
2021/07/14 12:27:43;;;;;;;155.20;43.37;;;18.90;99.90;;;;;;5126293;27;20551;-73
2021/07/14 12:30:11;;;;;;;148.30;48.53;;;18.90;99.90;;;;;;5121292;27;20439;-73
2021/07/14 12:32:43;;;;;;;148.37;44.10;;;18.80;99.90;;;;;;5124913;28;20872;-73
2021/07/14 12:37:50;;;;;;;195.97;55.43;;;18.90;99.90;;;;;;5102817;27;20541;-72
2021/07/14 12:40:34;;;;;;;168.85;52.67;;;18.80;99.90;;;;;;5086410;28;20438;-72
2021/07/14 12:43:03;;;;;;;215.03;60.23;;;18.90;99.90;;;;;;5085158;28;20186;-72
2021/07/14 12:45:31;;;;;;;221.83;65.23;;;18.90;99.90;;;;;;5088034;28;20428;-72
2021/07/14 12:48:03;;;;;;;219.70;61.37;;;18.90;99.90;;;;;;5081509;28;20433;-72
2021/07/14 12:50:29;;;;;;;206.90;64.50;;;18.80;99.90;;;;;;5091060;28;20430;-72
2021/07/14 12:52:57;;;;;;;199.57;65.33;;;18.80;99.90;;;;;;5086717;28;20434;-72
2021/07/14 12:55:24;;;;;;;226.50;62.27;;;18.80;99.90;;;;;;5089924;28;20431;-71
2021/07/14 12:57:52;;;;;;;203.50;60.63;;;18.80;99.90;;;;;;5084352;28;20521;-71
2021/07/14 13:00:18;;;;;;;208.95;63.45;;;18.90;99.90;;;;;;5076034;28;20490;-72
2021/07/14 13:02:47;;;;;;;219.38;59.20;;;18.90;99.90;;;;;;5069908;28;20557;-72
2021/07/14 13:05:17;;;;;;;218.67;60.70;;;18.90;99.90;;;;;;5071584;28;20180;-71
2021/07/14 13:07:46;;;;;;;228.30;62.03;;;18.90;99.90;;;;;;5072561;28;20441;-71
2021/07/14 13:10:13;;;;;;;207.87;59.67;;;18.90;99.90;;;;;;5070675;28;20565;-71
2021/07/14 13:12:39;;;;;;;227.93;59.20;;;19.00;99.90;;;;;;5077118;28;20459;-71
2021/07/14 13:15:06;;;;;;;248.47;60.70;;;19.00;99.90;;;;;;5081959;28;20445;-72
2021/07/14 13:17:34;;;;;;;207.30;61.17;;;19.00;99.90;;;;;;5076992;28;20962;-71
2021/07/14 13:20:05;;;;;;;249.63;61.10;;;19.00;99.90;;;;;;5084022;28;20432;-71
2021/07/14 13:22:31;;;;;;;213.70;61.33;;;19.10;99.90;;;;;;5087000;28;20483;-72
2021/07/14 13:27:54;;;;;;;205.03;58.17;;;19.10;99.90;;;;;;5130709;27;20950;-72
2021/07/14 13:35:39;;;;;;;39.57;15.00;;;19.00;99.90;;;;;;4984394;28;20547;-72
2021/07/14 13:46:34;;;;;;;7.00;2.50;;;18.40;99.90;;;;;;5061156;28;20581;-72
2021/07/14 13:51:57;;;;;;;4.50;1.40;;;18.30;99.90;;;;;;5058117;28;20879;-72
2021/07/14 14:05:05;;;;;;;3.40;1.93;;;17.90;99.90;;;;;;5058754;28;20577;-72
2021/07/14 14:07:34;;;;;;;2.00;1.60;;;17.90;99.90;;;;;;5070012;28;20405;-72
2021/07/14 14:10:20;;;;;;;2.07;1.17;;;17.90;99.90;;;;;;5069818;28;20395;-72
2021/07/14 14:12:48;;;;;;;5.00;1.70;;;17.90;99.90;;;;;;5058203;28;20465;-72
2021/07/14 14:17:52;;;;;;;1.27;1.10;;;17.80;99.90;;;;;;5069870;28;20602;-72
2021/07/14 14:20:29;;;;;;;3.00;1.50;;;17.70;99.90;;;;;;5070333;28;20414;-72
2021/07/14 14:22:56;;;;;;;2.20;1.47;;;17.70;99.90;;;;;;5069883;28;20843;-72
2021/07/14 14:25:24;;;;;;;1.00;0.70;;;17.70;99.90;;;;;;5069821;28;20424;-72
2021/07/14 14:30:31;;;;;;;3.10;1.10;;;17.70;99.90;;;;;;5095601;27;20519;-72
2021/07/14 14:32:58;;;;;;;2.20;1.30;;;17.70;99.90;;;;;;5075390;28;20417;-72